sensor_id;sensor_type;location;lat;lon;timestamp;pressure;altitude;pressure_sealevel;temperature;humidity
39555;BME280;25231;48.746;9.234;2023-04-10T00:01:33;97285.50;;;6.44;80.69
39555;BME280;25231;48.746;9.234;2023-04-10T00:04:01;97285.69;;;6.42;80.39
39555;BME280;25231;48.746;9.234;2023-04-10T00:06:27;97282.84;;;6.37;80.71
39555;BME280;25231;48.746;9.234;2023-04-10T00:08:52;97287.25;;;6.37;80.90
39555;BME280;25231;48.746;9.234;2023-04-10T00:11:18;97276.59;;;6.32;80.77
39555;BME280;25231;48.746;9.234;2023-04-10T00:13:43;97283.06;;;6.42;80.57
39555;BME280;25231;48.746;9.234;2023-04-10T00:16:09;97276.00;;;6.36;80.22
39555;BME280;25231;48.746;9.234;2023-04-10T00:18:34;97275.53;;;6.26;80.42
39555;BME280;25231;48.746;9.234;2023-04-10T00:21:01;97273.06;;;6.39;79.90
39555;BME280;25231;48.746;9.234;2023-04-10T00:23:27;97267.16;;;6.31;80.26
39555;BME280;25231;48.746;9.234;2023-04-10T00:25:52;97269.16;;;6.29;80.16
39555;BME280;25231;48.746;9.234;2023-04-10T00:28:17;97273.63;;;6.35;80.30
39555;BME280;25231;48.746;9.234;2023-04-10T00:30:43;97275.22;;;6.36;80.04
39555;BME280;25231;48.746;9.234;2023-04-10T00:33:08;97280.63;;;6.34;80.34
39555;BME280;25231;48.746;9.234;2023-04-10T00:35:33;97274.13;;;6.23;80.74
39555;BME280;25231;48.746;9.234;2023-04-10T00:37:59;97270.25;;;6.19;81.24
39555;BME280;25231;48.746;9.234;2023-04-10T00:40:24;97275.22;;;6.14;81.23
39555;BME280;25231;48.746;9.234;2023-04-10T00:42:50;97276.41;;;6.12;81.74
39555;BME280;25231;48.746;9.234;2023-04-10T00:45:15;97265.44;;;6.16;81.58
39555;BME280;25231;48.746;9.234;2023-04-10T00:47:41;97257.81;;;6.15;81.92
39555;BME280;25231;48.746;9.234;2023-04-10T00:50:06;97267.25;;;6.16;81.28
39555;BME280;25231;48.746;9.234;2023-04-10T00:52:32;97257.56;;;6.10;81.57
39555;BME280;25231;48.746;9.234;2023-04-10T00:54:57;97255.97;;;6.09;81.86
39555;BME280;25231;48.746;9.234;2023-04-10T00:57:23;97255.16;;;6.08;82.18
39555;BME280;25231;48.746;9.234;2023-04-10T00:59:49;97259.13;;;6.04;82.20
39555;BME280;25231;48.746;9.234;2023-04-10T01:02:16;97264.50;;;6.03;82.10
39555;BME280;25231;48.746;9.234;2023-04-10T01:04:41;97258.88;;;5.99;82.01
39555;BME280;25231;48.746;9.234;2023-04-10T01:07:15;97253.03;;;5.97;82.10
39555;BME280;25231;48.746;9.234;2023-04-10T01:10:06;97258.22;;;5.91;82.39
39555;BME280;25231;48.746;9.234;2023-04-10T01:12:56;97260.69;;;5.99;82.15
39555;BME280;25231;48.746;9.234;2023-04-10T01:15:25;97260.25;;;5.95;82.31
39555;BME280;25231;48.746;9.234;2023-04-10T01:18:02;97257.81;;;5.94;82.31
39555;BME280;25231;48.746;9.234;2023-04-10T01:20:31;97262.59;;;5.90;82.03
39555;BME280;25231;48.746;9.234;2023-04-10T01:25:59;97262.31;;;5.85;82.09
39555;BME280;25231;48.746;9.234;2023-04-10T01:31:15;97263.09;;;5.85;81.74
39555;BME280;25231;48.746;9.234;2023-04-10T01:33:46;97264.47;;;5.81;81.78
39555;BME280;25231;48.746;9.234;2023-04-10T01:36:19;97261.06;;;5.81;81.20
39555;BME280;25231;48.746;9.234;2023-04-10T01:38:46;97263.91;;;5.86;80.95
39555;BME280;25231;48.746;9.234;2023-04-10T01:41:14;97262.50;;;5.83;80.98
39555;BME280;25231;48.746;9.234;2023-04-10T01:43:40;97263.88;;;5.79;80.80
39555;BME280;25231;48.746;9.234;2023-04-10T01:46:07;97259.84;;;5.77;81.34
39555;BME280;25231;48.746;9.234;2023-04-10T01:48:32;97257.78;;;5.72;81.74
39555;BME280;25231;48.746;9.234;2023-04-10T01:51:02;97255.63;;;5.76;82.18
39555;BME280;25231;48.746;9.234;2023-04-10T01:53:29;97258.59;;;5.73;82.02
39555;BME280;25231;48.746;9.234;2023-04-10T01:55:56;97256.81;;;5.73;82.22
39555;BME280;25231;48.746;9.234;2023-04-10T01:58:21;97247.56;;;5.71;82.21
39555;BME280;25231;48.746;9.234;2023-04-10T02:00:47;97243.91;;;5.65;82.67
39555;BME280;25231;48.746;9.234;2023-04-10T02:03:12;97242.09;;;5.66;82.97
39555;BME280;25231;48.746;9.234;2023-04-10T02:09:21;97237.72;;;5.66;83.48
39555;BME280;25231;48.746;9.234;2023-04-10T02:11:54;97240.06;;;5.61;83.30
39555;BME280;25231;48.746;9.234;2023-04-10T02:14:24;97235.25;;;5.43;83.98
39555;BME280;25231;48.746;9.234;2023-04-10T02:16:54;97234.16;;;5.53;84.07
39555;BME280;25231;48.746;9.234;2023-04-10T02:19:21;97234.38;;;5.51;83.99
39555;BME280;25231;48.746;9.234;2023-04-10T02:21:48;97234.38;;;5.51;84.39
39555;BME280;25231;48.746;9.234;2023-04-10T02:24:14;97234.47;;;5.43;84.79
39555;BME280;25231;48.746;9.234;2023-04-10T02:27:06;97239.16;;;5.33;85.15
39555;BME280;25231;48.746;9.234;2023-04-10T02:29:31;97244.59;;;5.38;85.35
39555;BME280;25231;48.746;9.234;2023-04-10T02:31:56;97245.50;;;5.45;85.65
39555;BME280;25231;48.746;9.234;2023-04-10T02:34:24;97239.31;;;5.46;85.48
39555;BME280;25231;48.746;9.234;2023-04-10T02:36:50;97234.84;;;5.40;85.76
39555;BME280;25231;48.746;9.234;2023-04-10T02:39:15;97245.03;;;5.41;85.87
39555;BME280;25231;48.746;9.234;2023-04-10T02:41:40;97249.00;;;5.37;86.44
39555;BME280;25231;48.746;9.234;2023-04-10T02:44:06;97245.59;;;5.37;86.57
39555;BME280;25231;48.746;9.234;2023-04-10T02:46:31;97244.16;;;5.34;86.95
39555;BME280;25231;48.746;9.234;2023-04-10T02:48:57;97249.53;;;5.33;86.94
39555;BME280;25231;48.746;9.234;2023-04-10T02:51:23;97244.44;;;5.39;86.82
39555;BME280;25231;48.746;9.234;2023-04-10T02:53:48;97241.28;;;5.44;86.89
39555;BME280;25231;48.746;9.234;2023-04-10T02:56:14;97247.38;;;5.36;87.25
39555;BME280;25231;48.746;9.234;2023-04-10T02:58:39;97246.22;;;5.39;86.85
39555;BME280;25231;48.746;9.234;2023-04-10T03:01:09;97249.38;;;5.34;87.34
39555;BME280;25231;48.746;9.234;2023-04-10T03:03:34;97249.53;;;5.33;87.11
39555;BME280;25231;48.746;9.234;2023-04-10T03:06:00;97247.13;;;5.31;87.57
39555;BME280;25231;48.746;9.234;2023-04-10T03:08:25;97250.81;;;5.22;87.68
39555;BME280;25231;48.746;9.234;2023-04-10T03:10:50;97248.66;;;5.26;87.90
39555;BME280;25231;48.746;9.234;2023-04-10T03:13:16;97248.81;;;5.24;87.74
39555;BME280;25231;48.746;9.234;2023-04-10T03:15:41;97250.19;;;5.20;88.22
39555;BME280;25231;48.746;9.234;2023-04-10T03:18:07;97256.00;;;5.22;87.95
39555;BME280;25231;48.746;9.234;2023-04-10T03:20:35;97247.28;;;5.30;87.54
39555;BME280;25231;48.746;9.234;2023-04-10T03:23:01;97237.09;;;5.14;87.84
39555;BME280;25231;48.746;9.234;2023-04-10T03:25:27;97237.34;;;5.19;88.12
39555;BME280;25231;48.746;9.234;2023-04-10T03:27:52;97235.94;;;5.16;87.73
39555;BME280;25231;48.746;9.234;2023-04-10T03:30:17;97232.38;;;5.17;87.72
39555;BME280;25231;48.746;9.234;2023-04-10T03:32:43;97233.19;;;5.18;87.76
39555;BME280;25231;48.746;9.234;2023-04-10T03:35:09;97224.41;;;5.04;87.78
39555;BME280;25231;48.746;9.234;2023-04-10T03:37:35;97222.53;;;4.98;88.08
39555;BME280;25231;48.746;9.234;2023-04-10T03:40:00;97222.78;;;5.03;87.56
39555;BME280;25231;48.746;9.234;2023-04-10T03:42:25;97225.13;;;4.98;87.36
39555;BME280;25231;48.746;9.234;2023-04-10T03:44:51;97227.00;;;5.04;87.59
39555;BME280;25231;48.746;9.234;2023-04-10T03:47:16;97218.66;;;5.09;86.66
39555;BME280;25231;48.746;9.234;2023-04-10T03:49:42;97215.00;;;5.03;87.17
39555;BME280;25231;48.746;9.234;2023-04-10T03:52:07;97213.28;;;5.10;86.80
39555;BME280;25231;48.746;9.234;2023-04-10T03:54:32;97206.22;;;5.04;86.41
39555;BME280;25231;48.746;9.234;2023-04-10T03:56:59;97211.66;;;5.09;86.81
39555;BME280;25231;48.746;9.234;2023-04-10T03:59:25;97209.25;;;5.08;86.55
39555;BME280;25231;48.746;9.234;2023-04-10T04:01:51;97219.03;;;5.06;87.34
39555;BME280;25231;48.746;9.234;2023-04-10T04:04:17;97220.47;;;4.93;88.42
39555;BME280;25231;48.746;9.234;2023-04-10T04:06:42;97216.72;;;4.81;90.09
39555;BME280;25231;48.746;9.234;2023-04-10T04:09:07;97219.13;;;4.83;91.14
39555;BME280;25231;48.746;9.234;2023-04-10T04:11:33;97222.28;;;4.78;91.52
39555;BME280;25231;48.746;9.234;2023-04-10T04:13:58;97216.72;;;4.67;91.71
39555;BME280;25231;48.746;9.234;2023-04-10T04:16:23;97212.06;;;4.62;91.63
39555;BME280;25231;48.746;9.234;2023-04-10T04:18:49;97205.59;;;4.58;92.26
39555;BME280;25231;48.746;9.234;2023-04-10T04:21:14;97207.84;;;4.61;92.39
39555;BME280;25231;48.746;9.234;2023-04-10T04:23:40;97202.84;;;4.59;91.96
39555;BME280;25231;48.746;9.234;2023-04-10T04:26:05;97202.66;;;4.61;91.82
39555;BME280;25231;48.746;9.234;2023-04-10T04:28:30;97202.94;;;4.66;91.57
39555;BME280;25231;48.746;9.234;2023-04-10T04:30:56;97206.94;;;4.69;90.88
39555;BME280;25231;48.746;9.234;2023-04-10T04:33:21;97204.44;;;4.75;90.19
39555;BME280;25231;48.746;9.234;2023-04-10T04:35:48;97208.94;;;4.67;91.18
39555;BME280;25231;48.746;9.234;2023-04-10T04:38:13;97203.03;;;4.73;89.90
39555;BME280;25231;48.746;9.234;2023-04-10T04:40:40;97196.22;;;4.72;89.95
39555;BME280;25231;48.746;9.234;2023-04-10T04:43:06;97202.81;;;4.74;90.04
39555;BME280;25231;48.746;9.234;2023-04-10T04:45:31;97201.13;;;4.81;89.02
39555;BME280;25231;48.746;9.234;2023-04-10T04:47:56;97198.53;;;4.81;88.83
39555;BME280;25231;48.746;9.234;2023-04-10T04:50:22;97201.56;;;4.85;88.69
39555;BME280;25231;48.746;9.234;2023-04-10T04:52:47;97197.25;;;4.92;88.33
39555;BME280;25231;48.746;9.234;2023-04-10T04:55:13;97200.03;;;4.90;87.79
39555;BME280;25231;48.746;9.234;2023-04-10T04:57:38;97195.75;;;4.97;86.86
39555;BME280;25231;48.746;9.234;2023-04-10T05:00:04;97198.03;;;5.07;86.65
39555;BME280;25231;48.746;9.234;2023-04-10T05:02:30;97192.75;;;5.15;85.61
39555;BME280;25231;48.746;9.234;2023-04-10T05:04:55;97190.31;;;5.28;84.34
39555;BME280;25231;48.746;9.234;2023-04-10T05:07:20;97200.75;;;5.50;82.82
39555;BME280;25231;48.746;9.234;2023-04-10T05:09:46;97207.91;;;5.69;82.15
39555;BME280;25231;48.746;9.234;2023-04-10T05:12:11;97202.28;;;5.86;80.48
39555;BME280;25231;48.746;9.234;2023-04-10T05:14:36;97206.28;;;6.04;79.86
39555;BME280;25231;48.746;9.234;2023-04-10T05:17:02;97198.66;;;6.23;77.78
39555;BME280;25231;48.746;9.234;2023-04-10T05:19:27;97193.81;;;6.20;77.53
39555;BME280;25231;48.746;9.234;2023-04-10T05:21:52;97196.47;;;6.27;77.22
39555;BME280;25231;48.746;9.234;2023-04-10T05:24:18;97198.94;;;6.35;76.14
39555;BME280;25231;48.746;9.234;2023-04-10T05:26:43;97196.03;;;6.23;75.92
39555;BME280;25231;48.746;9.234;2023-04-10T05:29:08;97198.41;;;6.18;75.63
39555;BME280;25231;48.746;9.234;2023-04-10T05:31:34;97201.66;;;6.27;75.80
39555;BME280;25231;48.746;9.234;2023-04-10T05:33:59;97202.72;;;6.33;75.81
39555;BME280;25231;48.746;9.234;2023-04-10T05:36:25;97200.03;;;6.54;74.83
39555;BME280;25231;48.746;9.234;2023-04-10T05:38:50;97207.31;;;6.65;74.19
39555;BME280;25231;48.746;9.234;2023-04-10T05:41:16;97196.22;;;6.84;73.72
39555;BME280;25231;48.746;9.234;2023-04-10T05:43:41;97204.81;;;6.78;73.11
39555;BME280;25231;48.746;9.234;2023-04-10T05:46:06;97203.00;;;6.79;73.13
39555;BME280;25231;48.746;9.234;2023-04-10T05:48:32;97196.06;;;6.92;72.12
39555;BME280;25231;48.746;9.234;2023-04-10T05:50:57;97204.63;;;6.86;72.77
39555;BME280;25231;48.746;9.234;2023-04-10T05:53:27;97197.66;;;6.93;71.87
39555;BME280;25231;48.746;9.234;2023-04-10T05:55:55;97206.38;;;7.07;70.64
39555;BME280;25231;48.746;9.234;2023-04-10T05:58:20;97204.88;;;6.91;70.97
39555;BME280;25231;48.746;9.234;2023-04-10T06:00:46;97204.75;;;7.06;71.07
39555;BME280;25231;48.746;9.234;2023-04-10T06:03:11;97205.59;;;7.13;69.81
39555;BME280;25231;48.746;9.234;2023-04-10T06:05:36;97210.06;;;6.91;70.66
39555;BME280;25231;48.746;9.234;2023-04-10T06:08:02;97207.03;;;7.22;69.98
39555;BME280;25231;48.746;9.234;2023-04-10T06:10:31;97208.38;;;7.12;68.82
39555;BME280;25231;48.746;9.234;2023-04-10T06:12:56;97207.44;;;7.26;68.21
39555;BME280;25231;48.746;9.234;2023-04-10T06:15:21;97212.25;;;7.29;67.85
39555;BME280;25231;48.746;9.234;2023-04-10T06:17:47;97207.22;;;7.21;68.83
39555;BME280;25231;48.746;9.234;2023-04-10T06:20:12;97198.25;;;7.30;68.82
39555;BME280;25231;48.746;9.234;2023-04-10T06:22:37;97206.88;;;7.43;68.63
39555;BME280;25231;48.746;9.234;2023-04-10T06:25:03;97205.13;;;7.57;67.77
39555;BME280;25231;48.746;9.234;2023-04-10T06:27:29;97205.94;;;7.64;67.25
39555;BME280;25231;48.746;9.234;2023-04-10T06:29:55;97205.13;;;7.57;67.55
39555;BME280;25231;48.746;9.234;2023-04-10T06:32:21;97205.16;;;7.70;67.52
39555;BME280;25231;48.746;9.234;2023-04-10T06:34:46;97208.34;;;7.59;67.78
39555;BME280;25231;48.746;9.234;2023-04-10T06:37:11;97217.75;;;7.53;67.08
39555;BME280;25231;48.746;9.234;2023-04-10T06:39:37;97213.78;;;7.77;67.38
39555;BME280;25231;48.746;9.234;2023-04-10T06:42:03;97212.63;;;7.93;67.17
39555;BME280;25231;48.746;9.234;2023-04-10T06:44:28;97206.00;;;8.04;66.42
39555;BME280;25231;48.746;9.234;2023-04-10T06:46:54;97209.41;;;7.98;65.85
39555;BME280;25231;48.746;9.234;2023-04-10T06:49:19;97211.03;;;8.12;65.67
39555;BME280;25231;48.746;9.234;2023-04-10T06:51:45;97201.41;;;8.19;65.35
39555;BME280;25231;48.746;9.234;2023-04-10T06:54:12;97201.84;;;8.36;65.07
39555;BME280;25231;48.746;9.234;2023-04-10T06:56:38;97201.59;;;8.44;65.35
39555;BME280;25231;48.746;9.234;2023-04-10T06:59:03;97206.22;;;8.61;64.41
39555;BME280;25231;48.746;9.234;2023-04-10T07:01:28;97201.09;;;8.93;65.38
39555;BME280;25231;48.746;9.234;2023-04-10T07:03:54;97202.69;;;9.00;65.80
39555;BME280;25231;48.746;9.234;2023-04-10T07:06:20;97206.84;;;9.21;65.22
39555;BME280;25231;48.746;9.234;2023-04-10T07:08:47;97208.13;;;9.50;66.00
39555;BME280;25231;48.746;9.234;2023-04-10T07:11:13;97210.53;;;9.58;64.72
39555;BME280;25231;48.746;9.234;2023-04-10T07:13:38;97205.09;;;9.91;63.05
39555;BME280;25231;48.746;9.234;2023-04-10T07:16:04;97194.47;;;10.11;61.42
39555;BME280;25231;48.746;9.234;2023-04-10T07:18:30;97192.38;;;9.94;61.00
39555;BME280;25231;48.746;9.234;2023-04-10T07:20:56;97195.91;;;10.07;61.12
39555;BME280;25231;48.746;9.234;2023-04-10T07:23:21;97192.16;;;9.96;60.73
39555;BME280;25231;48.746;9.234;2023-04-10T07:25:47;97189.72;;;10.26;60.20
39555;BME280;25231;48.746;9.234;2023-04-10T07:28:12;97191.94;;;10.29;58.79
39555;BME280;25231;48.746;9.234;2023-04-10T07:30:37;97183.25;;;10.28;57.15
39555;BME280;25231;48.746;9.234;2023-04-10T07:33:03;97189.22;;;10.42;56.88
39555;BME280;25231;48.746;9.234;2023-04-10T07:35:28;97188.34;;;10.66;57.02
39555;BME280;25231;48.746;9.234;2023-04-10T07:37:53;97195.09;;;10.80;56.06
39555;BME280;25231;48.746;9.234;2023-04-10T07:40:19;97198.28;;;10.82;55.99
39555;BME280;25231;48.746;9.234;2023-04-10T07:42:45;97184.72;;;11.04;79.65
39555;BME280;25231;48.746;9.234;2023-04-10T07:45:10;97187.22;;;12.06;55.48
39555;BME280;25231;48.746;9.234;2023-04-10T07:47:36;97192.53;;;11.58;54.02
39555;BME280;25231;48.746;9.234;2023-04-10T07:50:02;97190.22;;;11.50;54.63
39555;BME280;25231;48.746;9.234;2023-04-10T07:52:28;97195.81;;;11.54;54.03
39555;BME280;25231;48.746;9.234;2023-04-10T07:54:53;97192.81;;;11.68;53.67
39555;BME280;25231;48.746;9.234;2023-04-10T07:57:19;97198.44;;;11.54;52.66
39555;BME280;25231;48.746;9.234;2023-04-10T07:59:44;97188.22;;;11.34;52.81
39555;BME280;25231;48.746;9.234;2023-04-10T08:02:10;97200.47;;;11.22;53.79
39555;BME280;25231;48.746;9.234;2023-04-10T08:04:35;97197.50;;;11.18;53.67
39555;BME280;25231;48.746;9.234;2023-04-10T08:07:01;97190.63;;;11.17;53.33
39555;BME280;25231;48.746;9.234;2023-04-10T08:09:26;97177.13;;;11.32;53.70
39555;BME280;25231;48.746;9.234;2023-04-10T08:11:51;97184.22;;;11.61;54.09
39555;BME280;25231;48.746;9.234;2023-04-10T08:14:17;97183.38;;;11.79;53.56
39555;BME280;25231;48.746;9.234;2023-04-10T08:16:42;97179.66;;;11.98;53.04
39555;BME280;25231;48.746;9.234;2023-04-10T08:19:07;97182.22;;;12.17;52.80
39555;BME280;25231;48.746;9.234;2023-04-10T08:21:33;97183.44;;;12.02;50.91
39555;BME280;25231;48.746;9.234;2023-04-10T08:24:01;97187.19;;;11.95;50.93
39555;BME280;25231;48.746;9.234;2023-04-10T08:26:27;97188.78;;;11.84;49.53
39555;BME280;25231;48.746;9.234;2023-04-10T08:28:55;97183.69;;;11.41;50.84
39555;BME280;25231;48.746;9.234;2023-04-10T08:31:22;97186.13;;;11.54;51.15
39555;BME280;25231;48.746;9.234;2023-04-10T08:33:49;97189.88;;;11.77;50.40
39555;BME280;25231;48.746;9.234;2023-04-10T08:36:14;97187.06;;;11.60;51.31
39555;BME280;25231;48.746;9.234;2023-04-10T08:38:41;97183.50;;;11.84;50.50
39555;BME280;25231;48.746;9.234;2023-04-10T08:41:09;97183.31;;;11.86;50.18
39555;BME280;25231;48.746;9.234;2023-04-10T08:43:35;97178.66;;;11.70;49.90
39555;BME280;25231;48.746;9.234;2023-04-10T08:46:00;97176.19;;;11.56;49.84
39555;BME280;25231;48.746;9.234;2023-04-10T08:48:34;97174.78;;;11.72;50.30
39555;BME280;25231;48.746;9.234;2023-04-10T08:51:03;97170.06;;;12.04;48.63
39555;BME280;25231;48.746;9.234;2023-04-10T08:53:30;97176.25;;;12.09;47.21
39555;BME280;25231;48.746;9.234;2023-04-10T08:55:56;97172.50;;;12.29;47.06
39555;BME280;25231;48.746;9.234;2023-04-10T08:58:23;97170.81;;;12.69;46.96
39555;BME280;25231;48.746;9.234;2023-04-10T09:00:48;97177.69;;;12.47;46.56
39555;BME280;25231;48.746;9.234;2023-04-10T09:03:18;97168.06;;;12.41;46.12
39555;BME280;25231;48.746;9.234;2023-04-10T09:05:43;97169.31;;;12.62;46.66
39555;BME280;25231;48.746;9.234;2023-04-10T09:08:09;97168.69;;;12.95;45.39
39555;BME280;25231;48.746;9.234;2023-04-10T09:10:36;97167.81;;;12.77;44.96
39555;BME280;25231;48.746;9.234;2023-04-10T09:13:01;97164.38;;;12.88;45.47
39555;BME280;25231;48.746;9.234;2023-04-10T09:15:27;97159.06;;;12.37;45.23
39555;BME280;25231;48.746;9.234;2023-04-10T09:18:00;97165.06;;;12.37;45.33
39555;BME280;25231;48.746;9.234;2023-04-10T09:20:28;97165.78;;;12.56;45.23
39555;BME280;25231;48.746;9.234;2023-04-10T09:22:53;97166.00;;;12.66;45.08
39555;BME280;25231;48.746;9.234;2023-04-10T09:28:07;97161.03;;;12.93;44.22
39555;BME280;25231;48.746;9.234;2023-04-10T09:30:38;97159.66;;;13.14;44.65
39555;BME280;25231;48.746;9.234;2023-04-10T09:35:49;97153.66;;;13.30;43.53
39555;BME280;25231;48.746;9.234;2023-04-10T09:40:40;97140.50;;;13.30;44.37
39555;BME280;25231;48.746;9.234;2023-04-10T09:43:23;97133.19;;;12.57;44.06
39555;BME280;25231;48.746;9.234;2023-04-10T09:45:54;97127.59;;;13.05;45.53
39555;BME280;25231;48.746;9.234;2023-04-10T09:48:21;97129.97;;;13.30;43.94
39555;BME280;25231;48.746;9.234;2023-04-10T09:50:46;97128.63;;;13.44;43.83
39555;BME280;25231;48.746;9.234;2023-04-10T09:53:17;97120.72;;;13.44;43.33
39555;BME280;25231;48.746;9.234;2023-04-10T09:55:48;97105.44;;;13.58;43.30
39555;BME280;25231;48.746;9.234;2023-04-10T09:58:15;97098.91;;;13.04;42.95
39555;BME280;25231;48.746;9.234;2023-04-10T10:00:43;97105.69;;;12.88;43.46
39555;BME280;25231;48.746;9.234;2023-04-10T10:03:11;97106.09;;;13.08;43.39
39555;BME280;25231;48.746;9.234;2023-04-10T10:05:40;97101.13;;;13.23;43.26
39555;BME280;25231;48.746;9.234;2023-04-10T10:08:08;97094.91;;;13.58;42.45
39555;BME280;25231;48.746;9.234;2023-04-10T10:10:36;97090.38;;;13.70;41.49
39555;BME280;25231;48.746;9.234;2023-04-10T10:13:03;97090.13;;;13.88;41.91
39555;BME280;25231;48.746;9.234;2023-04-10T10:15:35;97085.19;;;14.08;41.92
39555;BME280;25231;48.746;9.234;2023-04-10T10:18:20;97080.69;;;14.26;40.11
39555;BME280;25231;48.746;9.234;2023-04-10T10:20:47;97067.59;;;14.31;39.85
39555;BME280;25231;48.746;9.234;2023-04-10T10:23:14;97078.97;;;14.14;40.06
39555;BME280;25231;48.746;9.234;2023-04-10T10:25:40;97065.75;;;14.31;40.83
39555;BME280;25231;48.746;9.234;2023-04-10T10:28:11;97059.28;;;14.61;40.72
39555;BME280;25231;48.746;9.234;2023-04-10T10:30:37;97066.16;;;14.83;38.01
39555;BME280;25231;48.746;9.234;2023-04-10T10:33:05;97065.69;;;14.86;35.21
39555;BME280;25231;48.746;9.234;2023-04-10T10:35:31;97053.59;;;14.90;35.18
39555;BME280;25231;48.746;9.234;2023-04-10T10:37:59;97053.00;;;15.10;35.20
39555;BME280;25231;48.746;9.234;2023-04-10T10:40:28;97047.72;;;15.10;37.12
39555;BME280;25231;48.746;9.234;2023-04-10T10:43:15;97043.19;;;15.06;35.51
39555;BME280;25231;48.746;9.234;2023-04-10T10:48:15;97047.22;;;15.40;33.87
39555;BME280;25231;48.746;9.234;2023-04-10T10:50:50;97038.78;;;15.70;33.66
39555;BME280;25231;48.746;9.234;2023-04-10T10:55:57;97031.81;;;15.91;34.14
39555;BME280;25231;48.746;9.234;2023-04-10T10:58:45;97034.19;;;15.92;33.07
39555;BME280;25231;48.746;9.234;2023-04-10T11:01:12;97029.81;;;16.08;32.75
39555;BME280;25231;48.746;9.234;2023-04-10T11:03:37;97018.50;;;16.22;32.31
39555;BME280;25231;48.746;9.234;2023-04-10T11:06:07;97023.31;;;16.31;31.96
39555;BME280;25231;48.746;9.234;2023-04-10T11:11:05;97020.03;;;16.08;32.22
39555;BME280;25231;48.746;9.234;2023-04-10T11:13:38;97019.97;;;15.98;31.75
39555;BME280;25231;48.746;9.234;2023-04-10T11:16:06;97019.09;;;15.88;32.25
39555;BME280;25231;48.746;9.234;2023-04-10T11:19:04;97012.00;;;15.93;32.02
39555;BME280;25231;48.746;9.234;2023-04-10T11:21:31;97020.47;;;15.95;31.86
39555;BME280;25231;48.746;9.234;2023-04-10T11:31:42;97002.13;;;15.84;32.09
39555;BME280;25231;48.746;9.234;2023-04-10T11:34:09;97010.03;;;15.78;32.29
39555;BME280;25231;48.746;9.234;2023-04-10T11:36:42;97003.81;;;15.58;30.98
39555;BME280;25231;48.746;9.234;2023-04-10T11:39:10;96993.75;;;15.28;30.87
39555;BME280;25231;48.746;9.234;2023-04-10T11:41:44;96993.06;;;14.84;31.72
39555;BME280;25231;48.746;9.234;2023-04-10T11:44:11;96996.41;;;15.01;31.56
39555;BME280;25231;48.746;9.234;2023-04-10T11:46:38;96995.63;;;15.32;31.43
39555;BME280;25231;48.746;9.234;2023-04-10T11:49:05;96991.44;;;15.31;32.60
39555;BME280;25231;48.746;9.234;2023-04-10T11:51:31;96998.34;;;15.69;30.87
39555;BME280;25231;48.746;9.234;2023-04-10T11:56:28;96982.84;;;15.83;29.98
39555;BME280;25231;48.746;9.234;2023-04-10T11:58:54;96981.13;;;15.62;29.03
39555;BME280;25231;48.746;9.234;2023-04-10T12:01:20;96980.72;;;15.80;30.22
39555;BME280;25231;48.746;9.234;2023-04-10T12:03:46;96973.41;;;15.92;28.61
39555;BME280;25231;48.746;9.234;2023-04-10T12:06:12;96970.59;;;16.09;28.30
39555;BME280;25231;48.746;9.234;2023-04-10T12:08:43;96970.63;;;16.19;27.19
39555;BME280;25231;48.746;9.234;2023-04-10T12:11:23;96964.06;;;16.27;26.33
39555;BME280;25231;48.746;9.234;2023-04-10T12:13:54;96954.50;;;16.20;25.75
39555;BME280;25231;48.746;9.234;2023-04-10T12:16:20;96951.34;;;16.23;26.34
39555;BME280;25231;48.746;9.234;2023-04-10T12:18:47;96944.03;;;16.56;28.63
39555;BME280;25231;48.746;9.234;2023-04-10T12:21:13;96949.56;;;16.44;26.85
39555;BME280;25231;48.746;9.234;2023-04-10T12:23:39;96938.22;;;16.49;28.21
39555;BME280;25231;48.746;9.234;2023-04-10T12:28:35;96939.34;;;16.68;27.35
39555;BME280;25231;48.746;9.234;2023-04-10T12:31:00;96939.63;;;16.72;27.90
39555;BME280;25231;48.746;9.234;2023-04-10T12:33:27;96946.81;;;16.81;27.54
39555;BME280;25231;48.746;9.234;2023-04-10T12:35:52;96935.41;;;16.81;26.58
39555;BME280;25231;48.746;9.234;2023-04-10T12:38:54;96928.81;;;16.98;26.95
39555;BME280;25231;48.746;9.234;2023-04-10T12:41:24;96938.09;;;17.16;28.12
39555;BME280;25231;48.746;9.234;2023-04-10T12:43:51;96929.63;;;17.09;27.93
39555;BME280;25231;48.746;9.234;2023-04-10T12:46:25;96929.34;;;17.00;28.63
39555;BME280;25231;48.746;9.234;2023-04-10T12:48:51;96927.50;;;17.26;27.92
39555;BME280;25231;48.746;9.234;2023-04-10T12:51:16;96927.75;;;17.30;26.65
39555;BME280;25231;48.746;9.234;2023-04-10T12:53:43;96915.28;;;17.45;26.56
39555;BME280;25231;48.746;9.234;2023-04-10T12:56:09;96911.84;;;17.50;26.84
39555;BME280;25231;48.746;9.234;2023-04-10T12:58:36;96904.19;;;17.64;26.39
39555;BME280;25231;48.746;9.234;2023-04-10T13:01:04;96898.84;;;17.59;26.69
39555;BME280;25231;48.746;9.234;2023-04-10T13:03:32;96898.00;;;17.83;26.98
39555;BME280;25231;48.746;9.234;2023-04-10T13:05:58;96901.72;;;17.93;26.89
39555;BME280;25231;48.746;9.234;2023-04-10T13:08:23;96901.91;;;18.11;27.85
39555;BME280;25231;48.746;9.234;2023-04-10T13:10:49;96901.78;;;18.42;27.63
39555;BME280;25231;48.746;9.234;2023-04-10T13:13:15;96888.69;;;18.01;26.67
39555;BME280;25231;48.746;9.234;2023-04-10T13:15:41;96892.59;;;18.19;26.78
39555;BME280;25231;48.746;9.234;2023-04-10T13:18:07;96892.03;;;18.27;26.95
39555;BME280;25231;48.746;9.234;2023-04-10T13:20:35;96886.31;;;17.95;26.88
39555;BME280;25231;48.746;9.234;2023-04-10T13:23:00;96878.13;;;17.91;27.13
39555;BME280;25231;48.746;9.234;2023-04-10T13:25:30;96882.41;;;17.82;27.09
39555;BME280;25231;48.746;9.234;2023-04-10T13:27:56;96885.22;;;18.11;27.21
39555;BME280;25231;48.746;9.234;2023-04-10T13:30:22;96872.66;;;18.32;27.76
39555;BME280;25231;48.746;9.234;2023-04-10T13:32:47;96876.97;;;18.12;26.79
39555;BME280;25231;48.746;9.234;2023-04-10T13:35:12;96875.22;;;18.47;26.92
39555;BME280;25231;48.746;9.234;2023-04-10T13:37:38;96877.22;;;18.70;27.36
39555;BME280;25231;48.746;9.234;2023-04-10T13:40:03;96877.78;;;19.01;26.87
39555;BME280;25231;48.746;9.234;2023-04-10T13:42:29;96873.56;;;18.95;26.46